createdAt,value
2022-12-31T00:00:48.099Z,10.37
2022-12-31T00:05:49.644Z,10.39
2022-12-31T00:10:51.191Z,10.39
2022-12-31T00:15:52.707Z,10.34
2022-12-31T00:20:54.183Z,10.41
2022-12-31T00:25:55.670Z,10.45
2022-12-31T00:30:57.250Z,10.41
2022-12-31T00:36:14.310Z,10.38
2022-12-31T00:41:17.048Z,10.37
2022-12-31T00:46:19.167Z,10.33
2022-12-31T00:51:23.482Z,10.29
2022-12-31T00:56:27.842Z,10.23
2022-12-31T01:01:31.887Z,10.28
2022-12-31T01:06:33.622Z,10.24
2022-12-31T01:11:36.917Z,10.11
2022-12-31T01:16:44.422Z,10.07
2022-12-31T01:21:47.197Z,10.02
2022-12-31T01:26:48.815Z,10.05
2022-12-31T01:31:50.347Z,9.99
2022-12-31T01:36:51.897Z,9.94
2022-12-31T01:41:53.397Z,9.91
2022-12-31T01:47:06.122Z,9.83
2022-12-31T01:52:22.847Z,9.79
2022-12-31T01:57:26.044Z,9.79
2022-12-31T02:02:27.588Z,9.74
2022-12-31T02:07:29.209Z,9.75
2022-12-31T02:12:30.975Z,9.80
2022-12-31T02:17:32.439Z,9.81
2022-12-31T02:22:49.037Z,9.83
2022-12-31T02:28:01.973Z,9.91
2022-12-31T02:33:20.116Z,9.91
2022-12-31T02:38:37.848Z,9.92
2022-12-31T02:43:46.960Z,9.84
2022-12-31T02:49:07.707Z,9.90
2022-12-31T02:54:16.746Z,9.92
2022-12-31T02:59:44.719Z,9.88
2022-12-31T03:04:51.275Z,9.83
2022-12-31T03:09:53.244Z,9.83
2022-12-31T03:14:54.758Z,9.77
2022-12-31T03:20:15.126Z,9.67
2022-12-31T03:25:37.901Z,9.70
2022-12-31T03:30:41.835Z,9.73
2022-12-31T03:35:45.476Z,9.74
2022-12-31T03:40:50.077Z,9.70
2022-12-31T03:45:53.435Z,9.77
2022-12-31T03:50:55.030Z,9.82
2022-12-31T03:55:56.582Z,9.87
2022-12-31T04:00:58.228Z,9.90
2022-12-31T04:05:59.803Z,9.77
2022-12-31T04:11:01.334Z,9.67
2022-12-31T04:16:02.884Z,9.61
2022-12-31T04:21:05.623Z,9.58
2022-12-31T04:26:07.099Z,9.51
2022-12-31T04:31:08.835Z,9.50
2022-12-31T04:36:10.534Z,9.51
2022-12-31T04:41:18.286Z,9.46
2022-12-31T04:46:25.475Z,9.42
2022-12-31T04:51:29.183Z,9.37
2022-12-31T04:56:31.169Z,9.30
2022-12-31T05:01:33.410Z,9.27
2022-12-31T05:06:35.105Z,9.22
2022-12-31T05:11:37.848Z,9.16
2022-12-31T05:16:39.381Z,9.08
2022-12-31T05:21:40.944Z,8.93
2022-12-31T05:26:42.412Z,8.87
2022-12-31T05:31:43.925Z,8.87
2022-12-31T05:36:45.441Z,8.90
2022-12-31T05:41:46.977Z,8.90
2022-12-31T05:46:48.496Z,8.90
2022-12-31T05:51:50.024Z,8.95
2022-12-31T05:56:51.593Z,9.04
2022-12-31T06:01:53.072Z,9.11
2022-12-31T06:06:54.674Z,9.07
2022-12-31T06:11:56.194Z,8.99
2022-12-31T06:16:57.759Z,8.90
2022-12-31T06:21:59.311Z,8.88
2022-12-31T06:27:00.836Z,8.86
2022-12-31T06:32:02.403Z,8.85
2022-12-31T06:37:03.892Z,8.79
2022-12-31T06:42:05.878Z,8.75
2022-12-31T06:47:07.376Z,8.74
2022-12-31T06:52:08.901Z,8.76
2022-12-31T06:57:10.660Z,8.82
2022-12-31T07:02:24.054Z,8.75
2022-12-31T07:07:37.398Z,8.68
2022-12-31T07:12:49.143Z,8.67
2022-12-31T07:18:07.479Z,8.70
2022-12-31T07:23:09.326Z,8.76
2022-12-31T07:28:34.316Z,8.78
2022-12-31T07:33:59.988Z,8.84
2022-12-31T07:39:14.803Z,8.84
2022-12-31T07:44:34.001Z,8.87
2022-12-31T07:49:42.974Z,8.93
2022-12-31T07:54:44.455Z,8.94
2022-12-31T07:59:58.548Z,9.08
2022-12-31T08:05:12.174Z,9.19
2022-12-31T08:10:23.599Z,9.32
2022-12-31T08:15:30.193Z,9.75
2022-12-31T08:20:33.897Z,10.29
2022-12-31T08:26:00.293Z,10.47
2022-12-31T08:31:12.604Z,10.55
2022-12-31T08:37:00.492Z,10.66
2022-12-31T08:42:09.456Z,10.72
2022-12-31T08:47:35.507Z,10.75
2022-12-31T08:52:40.014Z,10.71
2022-12-31T08:57:50.481Z,10.85
2022-12-31T09:03:01.144Z,10.82
2022-12-31T09:08:30.387Z,10.93
2022-12-31T09:13:57.847Z,11.08
2022-12-31T09:18:59.332Z,11.07
2022-12-31T09:24:07.454Z,11.20
2022-12-31T09:29:39.906Z,11.35
2022-12-31T09:34:58.538Z,11.49
2022-12-31T09:40:10.718Z,11.47
2022-12-31T09:45:24.181Z,11.43
2022-12-31T09:50:34.611Z,11.52
2022-12-31T09:56:12.620Z,11.56
2022-12-31T10:01:50.652Z,11.47
2022-12-31T10:07:17.425Z,11.57
2022-12-31T10:12:37.685Z,11.68
2022-12-31T10:23:55.301Z,11.45
2022-12-31T10:29:23.825Z,11.62
2022-12-31T10:35:04.064Z,11.78
2022-12-31T10:40:44.096Z,11.88
2022-12-31T10:46:10.907Z,11.78
2022-12-31T10:51:31.062Z,11.76
2022-12-31T10:56:53.921Z,11.72
2022-12-31T11:02:13.433Z,11.84
2022-12-31T11:07:33.492Z,11.77
2022-12-31T11:13:03.669Z,11.58
2022-12-31T11:18:33.802Z,11.37
2022-12-31T11:23:41.375Z,11.49
2022-12-31T11:29:01.631Z,11.63
2022-12-31T11:34:38.455Z,11.63
2022-12-31T11:39:45.122Z,11.65
2022-12-31T11:44:59.211Z,11.73
2022-12-31T11:50:20.727Z,11.74
2022-12-31T11:55:53.315Z,11.67
2022-12-31T12:00:59.202Z,11.41
2022-12-31T12:06:00.745Z,11.55
2022-12-31T12:11:18.835Z,11.68
2022-12-31T12:16:23.108Z,11.74
2022-12-31T12:21:25.630Z,11.66
2022-12-31T12:26:35.149Z,11.71
2022-12-31T12:31:38.260Z,11.68
2022-12-31T12:36:46.992Z,11.30
2022-12-31T12:42:03.664Z,11.05
2022-12-31T12:47:13.816Z,11.15
2022-12-31T12:52:20.965Z,11.26
2022-12-31T12:57:56.645Z,11.28
2022-12-31T13:03:20.051Z,11.21
2022-12-31T13:08:40.254Z,11.26
2022-12-31T13:14:12.380Z,11.30
2022-12-31T13:19:23.601Z,11.12
2022-12-31T13:24:51.196Z,11.11
2022-12-31T13:29:55.085Z,11.16
2022-12-31T13:35:02.915Z,11.30
2022-12-31T13:40:21.147Z,11.44
2022-12-31T13:45:28.997Z,11.43
2022-12-31T13:51:03.733Z,11.44
2022-12-31T13:56:19.419Z,11.59
2022-12-31T14:01:34.512Z,11.64
2022-12-31T14:06:50.574Z,11.63
2022-12-31T14:12:32.008Z,11.65
2022-12-31T14:18:05.401Z,11.52
2022-12-31T14:23:24.077Z,11.59
2022-12-31T14:28:31.635Z,11.65
2022-12-31T14:33:59.252Z,11.67
2022-12-31T14:39:29.110Z,11.66
2022-12-31T14:44:57.857Z,11.67
2022-12-31T14:50:05.322Z,11.55
2022-12-31T14:55:09.761Z,11.46
2022-12-31T15:00:26.638Z,11.45
2022-12-31T15:05:34.594Z,11.38
2022-12-31T15:11:03.903Z,11.31
2022-12-31T15:16:24.666Z,11.24
2022-12-31T15:21:47.323Z,11.20
2022-12-31T15:26:52.810Z,11.05
2022-12-31T15:31:56.156Z,10.83
2022-12-31T15:37:00.434Z,10.81
2022-12-31T15:47:29.492Z,10.98
2022-12-31T15:52:43.010Z,10.90
2022-12-31T15:57:44.580Z,10.91
2022-12-31T16:02:48.863Z,11.04
2022-12-31T16:07:55.594Z,11.22
2022-12-31T16:12:59.435Z,11.27
2022-12-31T16:18:09.765Z,11.32
2022-12-31T16:23:27.522Z,11.28
2022-12-31T16:28:30.592Z,11.22
2022-12-31T16:33:32.436Z,11.26
2022-12-31T16:38:36.558Z,11.34
2022-12-31T16:43:41.771Z,11.39
2022-12-31T16:49:14.260Z,11.44
2022-12-31T16:54:20.707Z,11.46
2022-12-31T16:59:31.909Z,11.44
2022-12-31T17:04:38.742Z,11.46
2022-12-31T17:09:44.665Z,11.45
2022-12-31T17:14:51.217Z,11.39
2022-12-31T17:19:58.098Z,11.42
2022-12-31T17:30:34.701Z,11.30
2022-12-31T17:35:43.662Z,11.18
2022-12-31T17:40:51.651Z,11.07
2022-12-31T17:45:54.747Z,11.03
2022-12-31T17:51:00.864Z,11.02
2022-12-31T17:56:04.740Z,10.92
2022-12-31T18:01:07.957Z,10.94
2022-12-31T18:06:16.267Z,10.96
2022-12-31T18:11:21.397Z,10.99
2022-12-31T18:16:23.094Z,11.10
2022-12-31T18:21:29.897Z,11.19
2022-12-31T18:26:34.772Z,11.33
2022-12-31T18:31:36.927Z,11.46
2022-12-31T18:36:38.446Z,11.44
2022-12-31T18:41:49.601Z,11.40
2022-12-31T18:46:51.370Z,11.44
2022-12-31T18:51:54.256Z,11.45
2022-12-31T18:56:57.265Z,11.53
2022-12-31T19:01:59.009Z,11.50
2022-12-31T19:07:00.560Z,11.58
2022-12-31T19:12:02.093Z,11.66
2022-12-31T19:22:04.041Z,11.73
2022-12-31T19:27:05.631Z,11.80
2022-12-31T19:32:07.198Z,11.76
2022-12-31T19:37:14.702Z,11.79
2022-12-31T19:42:16.137Z,11.86
2022-12-31T19:47:17.670Z,11.86
2022-12-31T19:52:22.037Z,11.92
2022-12-31T19:57:23.543Z,12.02
2022-12-31T20:02:25.163Z,12.15
2022-12-31T20:07:27.359Z,12.14
2022-12-31T20:12:29.364Z,12.15
2022-12-31T20:17:31.039Z,12.26
2022-12-31T20:22:32.966Z,12.42
2022-12-31T20:27:34.703Z,12.37
2022-12-31T20:32:36.610Z,12.37
2022-12-31T20:37:38.088Z,12.45
2022-12-31T20:42:52.070Z,12.29
2022-12-31T20:47:53.570Z,12.01
2022-12-31T20:52:55.122Z,11.91
2022-12-31T20:57:56.597Z,11.99
2022-12-31T21:03:10.482Z,12.01
2022-12-31T21:08:20.205Z,11.96
2022-12-31T21:13:23.061Z,12.11
2022-12-31T21:18:24.573Z,12.19
2022-12-31T21:23:26.064Z,12.23
2022-12-31T21:28:27.560Z,12.20
2022-12-31T21:33:29.187Z,12.33
2022-12-31T21:38:30.664Z,12.29
2022-12-31T21:43:32.196Z,12.29
2022-12-31T21:48:33.942Z,12.47
2022-12-31T21:53:37.080Z,12.40
2022-12-31T21:58:44.297Z,12.29
2022-12-31T22:03:45.965Z,12.39
2022-12-31T22:08:53.269Z,12.47
2022-12-31T22:13:56.552Z,12.57
2022-12-31T22:18:58.048Z,12.68
2022-12-31T22:23:59.641Z,12.71
2022-12-31T22:29:01.183Z,12.63
2022-12-31T22:34:02.789Z,12.45
2022-12-31T22:39:04.473Z,12.35
2022-12-31T22:44:06.003Z,12.55
2022-12-31T22:49:10.034Z,12.66
2022-12-31T22:54:11.704Z,12.73
2022-12-31T22:59:13.228Z,12.67
2022-12-31T23:04:15.088Z,12.58
2022-12-31T23:09:36.336Z,12.51
2022-12-31T23:14:56.462Z,12.45
2022-12-31T23:20:21.404Z,12.33
2022-12-31T23:25:22.981Z,12.30
2022-12-31T23:30:24.807Z,12.36
2022-12-31T23:35:26.348Z,12.34
2022-12-31T23:40:35.661Z,12.34
2022-12-31T23:45:37.154Z,12.39
2022-12-31T23:50:40.567Z,12.41
2022-12-31T23:55:42.175Z,12.41
